Wuzhou, China
Current Conditions -  °F | °C
As of 2:00 AM on Saturday 25 Oct 2014 (Local Time) from ZGGG Reporting Station
Haze Haze  
Wind Chill: 72°   Ceiling: Unl
Heat Index: 72°   Visibility: 3mi
Dew Point: 68°   Wind: 4mph
Humidity: 88%   Direction: 80°E
Pressure: 30"   Gusts: NA
Location:  23.48°N, 111.32°E
Report Text: ZGGG 241800Z 08002MPS 5000 BR NSC 22/20 Q1016 NOSIG
Loading
Personal Weather Stations






























Interactive Weather Map
Tropical Storm Tracking
New forecast layout! Learn more

10-Day Weather Forecast

Advertisements
Track Severe Weather on mobile